Terminal Aerodrome Forecast
Issued by NWS

Home | Current Version | Previous Version | Text Only | Print | Product List | Glossary Off
Versions: 1 2 3 4 5 6 7 8 9 10 11 12 13 14 15 16 17 18 19 20 21 22 23 24 25 26 27 28 29

000
FTUS45 KGGW 111726
TAFOLF
TAF
KOLF 111726Z 1118/1218 05008KT 2SM -SN FEW008 OVC025
     FM112000 05007KT P6SM VCSH OVC025
     FM121200 06010KT P6SM FEW008 BKN015=

USA.gov is the U.S. government's official web portal to all federal, state and local government web resources and services.